Terminal Aerodrome Forecast
Issued by NWS

Home | Current Version | Previous Version | Text Only | Print | Product List | Glossary On
Versions: 1 2 3 4 5 6 7 8 9 10 11 12 13 14
000
FTUS46 KSEW 051746
TAFOLM
TAF
KOLM 051746Z 0518/0618 22006KT P6SM -SHRA BKN010 OVC020
     FM052100 19006KT P6SM SCT015 BKN025 OVC035
      TEMPO 0521/0601 -SHRA BKN015 OVC025
     FM060300 VRB03KT P6SM SCT025 BKN050
     FM060600 00000KT 1/2SM FG OVC002=

USA.gov is the U.S. government's official web portal to all federal, state and local government web resources and services.